createdAt,value
2023-01-26T00:05:38.463Z,13.40
2023-01-26T00:15:56.309Z,13.10
2023-01-26T00:26:37.576Z,12.90
2023-01-26T00:37:56.305Z,11.30
2023-01-26T00:49:03.199Z,12.60
2023-01-26T01:00:20.085Z,12.60
2023-01-26T01:11:27.644Z,14.00
2023-01-26T01:22:22.630Z,13.70
2023-01-26T01:33:47.252Z,12.60
2023-01-26T01:45:17.128Z,12.40
2023-01-26T01:56:35.029Z,11.80
2023-01-26T02:07:34.116Z,10.60
2023-01-26T02:18:41.674Z,9.60
2023-01-26T02:29:46.206Z,10.00
2023-01-26T02:40:39.388Z,11.40
2023-01-26T03:01:32.556Z,11.70
2023-01-26T03:11:45.738Z,12.20
2023-01-26T03:22:21.047Z,10.00
2023-01-26T03:32:59.800Z,9.20
2023-01-26T03:43:54.789Z,9.00
2023-01-26T03:54:34.385Z,9.10
2023-01-26T04:05:12.145Z,9.30
2023-01-26T04:16:08.396Z,8.90
2023-01-26T04:26:55.823Z,9.10
2023-01-26T04:38:00.581Z,10.50
2023-01-26T04:48:53.463Z,10.60
2023-01-26T04:59:26.539Z,9.90
2023-01-26T05:10:15.930Z,10.20
2023-01-26T05:21:04.248Z,14.20
2023-01-26T05:32:10.963Z,12.00
2023-01-26T05:42:35.457Z,12.80
2023-01-26T05:53:08.167Z,11.80
2023-01-26T06:03:49.058Z,11.00
2023-01-26T06:14:56.658Z,12.10
2023-01-26T06:25:21.842Z,18.30
2023-01-26T06:36:36.345Z,14.80
2023-01-26T06:47:38.202Z,17.90
2023-01-26T06:58:12.726Z,17.60
2023-01-26T07:08:55.655Z,16.10
2023-01-26T07:19:21.308Z,19.20
2023-01-26T07:29:37.371Z,18.70
2023-01-26T07:39:55.882Z,21.30
2023-01-26T07:50:24.834Z,17.40
2023-01-26T08:01:11.991Z,17.90
2023-01-26T08:11:39.176Z,15.80
2023-01-26T08:21:59.340Z,20.90
2023-01-26T08:32:51.249Z,22.20
2023-01-26T08:43:35.469Z,21.20
2023-01-26T08:54:09.835Z,21.10
2023-01-26T09:05:03.708Z,19.40
2023-01-26T09:16:03.929Z,17.80
2023-01-26T09:26:31.707Z,16.30
2023-01-26T09:37:12.247Z,16.00
2023-01-26T09:48:09.060Z,17.00
2023-01-26T09:59:40.952Z,16.00
2023-01-26T10:10:24.140Z,18.60
2023-01-26T10:20:58.866Z,16.70
2023-01-26T10:31:13.016Z,15.90
2023-01-26T10:41:23.144Z,17.30
2023-01-26T10:51:32.638Z,15.90
2023-01-26T11:01:59.390Z,16.00
2023-01-26T11:12:11.181Z,13.40
2023-01-26T11:22:53.724Z,13.70
2023-01-26T11:33:11.010Z,14.80
2023-01-26T11:43:27.568Z,16.00
2023-01-26T11:54:18.106Z,19.00
2023-01-26T12:04:38.607Z,23.40
2023-01-26T12:14:59.715Z,24.60
2023-01-26T12:25:45.904Z,26.30
2023-01-26T12:36:17.592Z,29.40
2023-01-26T12:46:25.483Z,23.50
2023-01-26T12:57:05.211Z,23.60
2023-01-26T13:07:31.585Z,25.50
2023-01-26T13:17:49.487Z,26.10
2023-01-26T13:28:13.881Z,28.40
2023-01-26T13:38:25.161Z,33.90
2023-01-26T13:48:47.831Z,24.50
2023-01-26T13:59:23.569Z,25.00
2023-01-26T14:10:34.217Z,31.00
2023-01-26T14:21:35.423Z,26.40
2023-01-26T14:32:29.836Z,25.00
2023-01-26T14:43:00.541Z,27.00
2023-01-26T14:53:28.782Z,27.20
2023-01-26T15:03:43.343Z,30.70
2023-01-26T15:13:52.566Z,28.60
2023-01-26T15:23:59.072Z,28.70
2023-01-26T15:34:07.567Z,34.60
2023-01-26T15:44:21.964Z,37.20
2023-01-26T15:54:36.541Z,43.90
2023-01-26T16:04:47.250Z,46.80
2023-01-26T16:14:56.783Z,45.00
2023-01-26T16:25:00.909Z,40.40
2023-01-26T16:35:16.659Z,47.80
2023-01-26T16:45:27.193Z,46.60
2023-01-26T16:55:38.164Z,40.60
2023-01-26T17:05:43.831Z,47.30
2023-01-26T17:16:19.163Z,46.40
2023-01-26T17:26:36.549Z,60.30
2023-01-26T17:37:17.801Z,60.70
2023-01-26T17:47:45.229Z,64.50
2023-01-26T17:58:21.944Z,66.50
2023-01-26T18:08:30.801Z,75.10
2023-01-26T18:19:09.786Z,83.40
2023-01-26T18:29:55.403Z,63.20
2023-01-26T18:40:24.659Z,81.90
2023-01-26T18:50:57.518Z,80.80
2023-01-26T19:01:24.354Z,71.60
2023-01-26T19:12:16.291Z,70.00
2023-01-26T19:22:25.034Z,73.20
2023-01-26T19:32:33.716Z,120.60
2023-01-26T19:43:11.001Z,74.70
2023-01-26T19:53:47.511Z,86.00
2023-01-26T20:04:23.058Z,75.60
2023-01-26T20:15:18.390Z,87.60
2023-01-26T20:26:33.874Z,81.10
2023-01-26T20:37:11.251Z,87.50
2023-01-26T20:47:58.117Z,81.70
2023-01-26T20:58:34.199Z,90.70
2023-01-26T21:09:36.549Z,87.00
2023-01-26T21:20:12.986Z,83.80
2023-01-26T21:31:09.830Z,81.60
2023-01-26T21:41:48.283Z,75.60
2023-01-26T21:53:19.427Z,83.50
2023-01-26T22:03:52.589Z,71.40
2023-01-26T22:13:59.680Z,76.10
2023-01-26T22:24:18.428Z,68.30
2023-01-26T22:34:22.587Z,75.60
2023-01-26T22:44:43.258Z,72.40
2023-01-26T22:55:07.856Z,74.70
2023-01-26T23:05:11.948Z,74.00
2023-01-26T23:15:56.202Z,70.20
2023-01-26T23:37:26.002Z,51.00
2023-01-26T23:47:55.660Z,53.60
2023-01-26T23:58:23.069Z,48.50
